Time;durP1;ratioP1;P1;durP2;ratioP2;P2;SDS_P1;SDS_P2;PMS_P1;PMS_P2;Temp;Humidity;BMP_temperature;BMP_pressure;BME280_temperature;BME280_humidity;BME280_pressure;Samples;Min_cycle;Max_cycle;Signal;HPM_P1;HPM_P2
2023/03/25 00:00:17;;;;;;;11.57;2.97;;;9.90;99.90;;;;;;5054458;28;20041;-72
2023/03/25 00:02:49;;;;;;;10.48;2.58;;;9.90;99.90;;;;;;5054426;28;20033;-71
2023/03/25 00:05:16;;;;;;;17.30;2.35;;;10.00;99.90;;;;;;5037746;28;20135;-72
2023/03/25 00:07:47;;;;;;;12.98;2.20;;;9.90;99.90;;;;;;5037922;28;20037;-72
2023/03/25 00:10:14;;;;;;;13.00;2.42;;;9.90;99.90;;;;;;5054343;28;20041;-72
2023/03/25 00:12:41;;;;;;;13.77;2.17;;;10.00;99.90;;;;;;5037896;28;20048;-72
2023/03/25 00:15:09;;;;;;;10.40;2.25;;;9.90;99.90;;;;;;5054366;28;20041;-72
2023/03/25 00:17:35;;;;;;;12.73;2.47;;;10.00;99.90;;;;;;5054117;28;20123;-72
2023/03/25 00:20:04;;;;;;;13.05;2.72;;;10.00;99.90;;;;;;5054136;28;20045;-72
2023/03/25 00:22:29;;;;;;;14.13;2.33;;;10.00;99.90;;;;;;5053588;28;20056;-72
2023/03/25 00:24:55;;;;;;;15.15;2.95;;;10.00;99.90;;;;;;5053875;28;20041;-72
2023/03/25 00:27:20;;;;;;;11.02;2.72;;;10.00;99.90;;;;;;5054225;28;20039;-72
2023/03/25 00:29:46;;;;;;;15.20;2.40;;;10.00;99.90;;;;;;5053935;28;20048;-72
2023/03/25 00:32:14;;;;;;;13.13;2.20;;;10.00;99.90;;;;;;5053880;28;20037;-72
2023/03/25 00:34:45;;;;;;;12.57;2.03;;;10.00;99.90;;;;;;5053781;28;20551;-72
2023/03/25 00:37:12;;;;;;;15.95;2.80;;;10.00;99.90;;;;;;5053825;28;20041;-72
2023/03/25 00:39:38;;;;;;;12.27;2.30;;;10.00;99.90;;;;;;5054016;28;20505;-72
2023/03/25 00:42:04;;;;;;;13.75;2.10;;;9.90;99.90;;;;;;5037093;28;20085;-72
2023/03/25 00:44:30;;;;;;;17.08;2.85;;;9.80;99.90;;;;;;5053513;28;20056;-71
2023/03/25 00:46:56;;;;;;;12.70;2.03;;;9.80;99.90;;;;;;5053902;28;20063;-72
2023/03/25 00:49:24;;;;;;;13.35;2.30;;;9.70;99.90;;;;;;5053583;28;20533;-72
2023/03/25 00:51:55;;;;;;;12.63;2.70;;;9.60;99.90;;;;;;5053499;28;20045;-72
2023/03/25 00:54:21;;;;;;;11.43;2.33;;;9.50;99.90;;;;;;5053420;28;20485;-71
2023/03/25 00:56:48;;;;;;;13.95;2.17;;;9.40;99.90;;;;;;5053600;28;20068;-72
2023/03/25 00:59:14;;;;;;;15.98;2.45;;;9.30;99.90;;;;;;5053396;28;20041;-72
2023/03/25 01:01:40;;;;;;;19.05;2.88;;;9.30;99.90;;;;;;5053292;28;20451;-72
2023/03/25 01:04:11;;;;;;;10.32;2.10;;;9.20;99.90;;;;;;5053132;28;20041;-71
2023/03/25 01:06:40;;;;;;;13.68;2.65;;;9.20;99.90;;;;;;5053302;28;20072;-72
2023/03/25 01:09:08;;;;;;;17.33;2.58;;;9.10;99.90;;;;;;5053196;28;20115;-72
2023/03/25 01:11:36;;;;;;;19.40;2.78;;;9.10;99.90;;;;;;5053115;28;20041;-72
2023/03/25 01:14:04;;;;;;;15.65;2.70;;;9.00;99.90;;;;;;5053009;28;20040;-72
2023/03/25 01:16:31;;;;;;;15.35;2.42;;;9.00;99.90;;;;;;5054442;28;20046;-72
2023/03/25 01:18:56;;;;;;;15.38;2.90;;;9.00;99.90;;;;;;5053256;28;20612;-72
2023/03/25 01:21:22;;;;;;;16.90;2.72;;;9.00;99.90;;;;;;5052964;28;20112;-72
2023/03/25 01:23:48;;;;;;;11.65;2.55;;;9.00;99.90;;;;;;5053090;28;20076;-72
2023/03/25 01:26:15;;;;;;;16.80;2.63;;;8.90;99.90;;;;;;5052777;28;20047;-71
2023/03/25 01:28:42;;;;;;;17.50;2.55;;;8.90;99.90;;;;;;5052808;28;20049;-71
2023/03/25 01:31:10;;;;;;;11.80;2.50;;;8.90;99.90;;;;;;5052783;28;20037;-72
2023/03/25 01:33:36;;;;;;;14.07;2.75;;;8.90;99.90;;;;;;5052361;28;20036;-71
2023/03/25 01:36:03;;;;;;;19.15;3.38;;;8.80;99.90;;;;;;5052951;28;20041;-72
2023/03/25 01:38:29;;;;;;;15.68;2.53;;;8.90;99.90;;;;;;5036025;28;20044;-72
2023/03/25 01:40:55;;;;;;;14.75;2.05;;;8.90;99.90;;;;;;5052567;28;20029;-72
2023/03/25 01:43:22;;;;;;;16.02;2.70;;;8.80;99.90;;;;;;5052543;28;20091;-71
2023/03/25 01:45:49;;;;;;;15.18;2.30;;;8.80;99.90;;;;;;5052367;28;20090;-71
2023/03/25 01:48:22;;;;;;;12.38;2.22;;;8.80;99.90;;;;;;5052698;28;20060;-72
2023/03/25 01:50:53;;;;;;;20.42;3.35;;;8.80;99.90;;;;;;5052496;28;20045;-72
2023/03/25 01:53:19;;;;;;;14.18;2.78;;;8.80;99.90;;;;;;5052599;28;20048;-72
2023/03/25 01:55:46;;;;;;;11.73;2.53;;;8.80;99.90;;;;;;5035547;28;20041;-71
2023/03/25 01:58:16;;;;;;;14.50;2.38;;;8.80;99.90;;;;;;5052269;28;20041;-72
2023/03/25 02:00:44;;;;;;;17.15;3.28;;;8.80;99.90;;;;;;5052527;28;20401;-72
2023/03/25 02:03:10;;;;;;;18.00;3.30;;;8.80;99.90;;;;;;5052188;28;20052;-71
2023/03/25 02:05:47;;;;;;;19.13;2.80;;;8.80;99.90;;;;;;5052062;28;20125;-72
2023/03/25 02:08:14;;;;;;;17.23;3.33;;;8.80;99.90;;;;;;5052143;28;20502;-72
2023/03/25 02:10:43;;;;;;;19.15;3.20;;;8.90;99.90;;;;;;5052343;28;20059;-72
2023/03/25 02:13:10;;;;;;;16.75;2.85;;;8.80;99.90;;;;;;5052268;28;20089;-72
2023/03/25 02:15:58;;;;;;;18.63;3.10;;;8.80;99.90;;;;;;5052223;28;20040;-72
2023/03/25 02:18:29;;;;;;;18.83;3.10;;;8.90;99.90;;;;;;5033454;28;20049;-72
2023/03/25 02:21:07;;;;;;;21.67;3.10;;;8.80;99.90;;;;;;5051987;28;20095;-72
2023/03/25 02:23:44;;;;;;;22.92;3.50;;;8.80;99.90;;;;;;5035411;28;20128;-72
2023/03/25 02:26:28;;;;;;;19.55;3.38;;;8.80;99.90;;;;;;5051859;28;20076;-71
2023/03/25 02:29:06;;;;;;;21.10;3.08;;;8.80;99.90;;;;;;5051905;28;20045;-71
2023/03/25 02:31:51;;;;;;;17.27;3.28;;;8.70;99.90;;;;;;5051847;28;20040;-71
2023/03/25 02:34:28;;;;;;;18.00;3.28;;;8.80;99.90;;;;;;5051814;28;20047;-71
2023/03/25 02:37:32;;;;;;;22.02;4.35;;;8.70;99.90;;;;;;5051804;28;20048;-72
2023/03/25 02:40:05;;;;;;;21.10;3.95;;;8.70;99.90;;;;;;5052017;28;20114;-72
2023/03/25 02:42:55;;;;;;;22.63;4.25;;;8.80;99.90;;;;;;5035132;28;20040;-72
2023/03/25 02:45:23;;;;;;;16.05;3.15;;;8.70;99.90;;;;;;5051558;28;20494;-72
2023/03/25 02:48:08;;;;;;;18.98;2.97;;;8.70;99.90;;;;;;5055803;28;20080;-72
2023/03/25 02:50:45;;;;;;;18.33;3.22;;;8.70;99.90;;;;;;5056118;28;20098;-72
2023/03/25 02:53:16;;;;;;;24.73;3.88;;;8.70;99.90;;;;;;5055758;28;20486;-71
2023/03/25 02:55:43;;;;;;;22.65;3.45;;;8.70;99.90;;;;;;5039563;28;20044;-71
2023/03/25 02:58:11;;;;;;;17.08;3.28;;;8.60;99.90;;;;;;5055941;28;20128;-72
2023/03/25 03:00:38;;;;;;;24.75;3.95;;;8.60;99.90;;;;;;5055854;28;20037;-72
2023/03/25 03:03:06;;;;;;;14.88;3.30;;;8.60;99.90;;;;;;5055868;28;20041;-71
2023/03/25 03:05:33;;;;;;;17.42;3.22;;;8.60;99.90;;;;;;5055337;28;20451;-71
2023/03/25 03:08:17;;;;;;;21.00;3.70;;;8.60;99.90;;;;;;5055754;28;20047;-71
2023/03/25 03:11:01;;;;;;;20.83;3.70;;;8.60;99.90;;;;;;5055442;28;20039;-71
2023/03/25 03:14:01;;;;;;;19.33;2.88;;;8.60;99.90;;;;;;5055438;28;20041;-72
2023/03/25 03:16:32;;;;;;;19.58;3.83;;;8.60;99.90;;;;;;5055555;28;20132;-71
2023/03/25 03:19:20;;;;;;;24.02;4.00;;;8.60;99.90;;;;;;5055318;28;20036;-71
2023/03/25 03:22:00;;;;;;;17.13;4.00;;;8.60;99.90;;;;;;5055300;28;20123;-71
2023/03/25 03:24:40;;;;;;;16.10;3.50;;;8.60;99.90;;;;;;5055139;28;20048;-71
2023/03/25 03:27:22;;;;;;;23.52;3.83;;;8.60;99.90;;;;;;5055502;28;20072;-72
2023/03/25 03:30:15;;;;;;;21.38;3.60;;;8.50;99.90;;;;;;5038545;28;20037;-72
2023/03/25 03:33:03;;;;;;;20.67;4.00;;;8.50;99.90;;;;;;5052914;28;20049;-72
2023/03/25 03:35:42;;;;;;;21.73;3.17;;;8.50;99.90;;;;;;5055009;28;20048;-71
2023/03/25 03:38:12;;;;;;;19.13;4.13;;;8.60;99.90;;;;;;5055117;28;20049;-71
2023/03/25 03:40:41;;;;;;;24.25;4.47;;;8.60;99.90;;;;;;5054918;28;20049;-71
2023/03/25 03:43:19;;;;;;;14.43;2.90;;;8.60;99.90;;;;;;5054869;28;20056;-71
2023/03/25 03:45:48;;;;;;;22.73;3.90;;;8.60;99.90;;;;;;5054670;28;20524;-71
2023/03/25 03:48:40;;;;;;;22.67;3.75;;;8.60;99.90;;;;;;5054744;28;20048;-71
2023/03/25 03:51:12;;;;;;;19.35;3.25;;;8.60;99.90;;;;;;5054775;28;20037;-72
2023/03/25 03:54:02;;;;;;;19.92;3.28;;;8.60;99.90;;;;;;5054690;28;20063;-72
2023/03/25 03:56:37;;;;;;;18.20;3.42;;;8.60;99.90;;;;;;5054224;28;20098;-71
2023/03/25 03:59:23;;;;;;;24.23;3.80;;;8.60;99.90;;;;;;5054553;28;20095;-72
2023/03/25 04:01:58;;;;;;;18.92;3.70;;;8.50;99.90;;;;;;5054513;28;20041;-72
2023/03/25 04:04:25;;;;;;;19.45;3.92;;;8.60;99.90;;;;;;5054553;28;20124;-71
2023/03/25 04:07:00;;;;;;;15.57;3.13;;;8.50;99.90;;;;;;5054382;28;20417;-71
2023/03/25 04:09:39;;;;;;;16.65;3.70;;;8.50;99.90;;;;;;5054658;28;20091;-72
2023/03/25 04:12:14;;;;;;;18.58;3.70;;;8.50;99.90;;;;;;5054574;28;20106;-72
2023/03/25 04:14:40;;;;;;;16.48;2.92;;;8.50;99.90;;;;;;5054237;28;20128;-71
2023/03/25 04:17:05;;;;;;;23.00;3.72;;;8.50;99.90;;;;;;5054236;28;20083;-71
2023/03/25 04:19:34;;;;;;;17.73;3.65;;;8.40;99.90;;;;;;5070856;28;20095;-71
2023/03/25 04:22:03;;;;;;;20.90;4.35;;;8.50;99.90;;;;;;5054419;28;20067;-71
2023/03/25 04:24:30;;;;;;;19.17;4.00;;;8.50;99.90;;;;;;5054117;28;20037;-71
2023/03/25 04:27:02;;;;;;;15.80;4.00;;;8.50;99.90;;;;;;5054267;28;20044;-71
2023/03/25 04:29:28;;;;;;;22.45;4.80;;;8.50;99.90;;;;;;5038026;28;20493;-72
2023/03/25 04:31:55;;;;;;;19.38;3.88;;;8.50;99.90;;;;;;5053923;28;20439;-72
2023/03/25 04:34:22;;;;;;;20.77;4.00;;;8.40;99.90;;;;;;5053786;28;20049;-71
2023/03/25 04:36:49;;;;;;;25.52;4.25;;;8.40;99.90;;;;;;5037543;28;20040;-72
2023/03/25 04:39:21;;;;;;;21.25;4.45;;;8.40;99.90;;;;;;5053794;28;20044;-72
2023/03/25 04:41:47;;;;;;;23.87;4.77;;;8.40;99.90;;;;;;5053838;28;20044;-71
2023/03/25 04:44:13;;;;;;;20.73;4.63;;;8.40;99.90;;;;;;5053527;28;20049;-71
2023/03/25 04:46:38;;;;;;;26.98;5.30;;;8.40;99.90;;;;;;5053659;28;20060;-71
2023/03/25 04:49:12;;;;;;;20.05;4.07;;;8.40;99.90;;;;;;5053617;28;20040;-71
2023/03/25 04:51:43;;;;;;;21.42;4.63;;;8.40;99.90;;;;;;5053603;28;20037;-72
2023/03/25 04:54:09;;;;;;;23.65;4.40;;;8.40;99.90;;;;;;5053700;28;20509;-71
2023/03/25 04:56:35;;;;;;;23.80;4.85;;;8.30;99.90;;;;;;5053357;28;20055;-72
2023/03/25 04:59:01;;;;;;;23.42;4.45;;;8.30;99.90;;;;;;5053374;28;20048;-72
2023/03/25 05:01:31;;;;;;;21.63;4.88;;;8.30;99.90;;;;;;5053378;28;20120;-72
2023/03/25 05:04:04;;;;;;;28.98;5.35;;;8.40;99.90;;;;;;5053265;28;20072;-71
2023/03/25 05:06:34;;;;;;;22.77;4.30;;;8.30;99.90;;;;;;5053609;28;20044;-71
2023/03/25 05:09:02;;;;;;;24.27;4.53;;;8.40;99.90;;;;;;5052820;28;20103;-71
2023/03/25 05:11:28;;;;;;;23.15;4.90;;;8.30;99.90;;;;;;5053421;28;20036;-71
2023/03/25 05:13:54;;;;;;;18.52;4.55;;;8.40;99.90;;;;;;5053077;28;20409;-71
2023/03/25 05:16:20;;;;;;;19.13;4.32;;;8.40;99.90;;;;;;5052988;28;20040;-71
2023/03/25 05:18:46;;;;;;;21.02;4.50;;;8.40;99.90;;;;;;5036281;28;20037;-71
2023/03/25 05:21:11;;;;;;;20.73;4.07;;;8.30;99.90;;;;;;5053256;28;20091;-71
2023/03/25 05:23:38;;;;;;;21.98;4.40;;;8.30;99.90;;;;;;5052914;28;20489;-71
2023/03/25 05:26:03;;;;;;;24.30;4.72;;;8.40;99.90;;;;;;5036180;28;20041;-71
2023/03/25 05:28:29;;;;;;;18.92;4.10;;;8.40;99.90;;;;;;5052850;28;20041;-71
2023/03/25 05:30:55;;;;;;;18.25;3.70;;;8.40;99.90;;;;;;5053010;28;20040;-71
2023/03/25 05:33:21;;;;;;;21.42;4.63;;;8.40;99.90;;;;;;5052741;28;20409;-71
2023/03/25 05:35:47;;;;;;;19.75;4.85;;;8.40;99.90;;;;;;5052880;28;20417;-71
2023/03/25 05:38:17;;;;;;;21.35;4.43;;;8.40;99.90;;;;;;5036067;28;20509;-72
2023/03/25 05:40:47;;;;;;;19.83;4.22;;;8.50;99.90;;;;;;5052885;28;20041;-72
2023/03/25 05:43:14;;;;;;;21.60;3.85;;;8.40;99.90;;;;;;5052502;28;20505;-71
2023/03/25 05:45:44;;;;;;;23.70;4.20;;;8.40;99.90;;;;;;5052344;28;20122;-71
2023/03/25 05:48:10;;;;;;;23.67;4.45;;;8.40;99.90;;;;;;5036101;28;20041;-71
2023/03/25 05:50:36;;;;;;;25.95;4.43;;;8.40;99.90;;;;;;5052418;28;20037;-71
2023/03/25 05:53:03;;;;;;;24.73;4.68;;;8.30;99.90;;;;;;5052668;28;20110;-72
2023/03/25 05:55:29;;;;;;;23.60;4.45;;;8.40;99.90;;;;;;5052087;28;20041;-71
2023/03/25 05:57:55;;;;;;;22.65;4.93;;;8.30;99.90;;;;;;5052308;28;20044;-72
2023/03/25 06:00:21;;;;;;;21.08;4.55;;;8.40;99.90;;;;;;5035696;28;20099;-72
2023/03/25 06:02:48;;;;;;;24.85;4.82;;;8.40;99.90;;;;;;5052238;28;20057;-72
2023/03/25 06:05:15;;;;;;;23.10;4.00;;;8.30;99.90;;;;;;5052166;28;20037;-71
2023/03/25 06:07:44;;;;;;;19.70;4.18;;;8.30;99.90;;;;;;5052137;28;20390;-72
2023/03/25 06:10:11;;;;;;;19.10;3.75;;;8.40;99.90;;;;;;5052130;28;20048;-72
2023/03/25 06:12:38;;;;;;;20.33;3.80;;;8.40;99.90;;;;;;5052047;28;20048;-70
2023/03/25 06:15:16;;;;;;;21.25;3.97;;;8.40;99.90;;;;;;5052215;28;20040;-71
2023/03/25 06:17:45;;;;;;;21.38;4.85;;;8.40;99.90;;;;;;5052083;28;20041;-71
2023/03/25 06:20:12;;;;;;;23.00;4.75;;;8.30;99.90;;;;;;5051959;28;20059;-71
2023/03/25 06:22:45;;;;;;;21.35;4.65;;;8.40;99.90;;;;;;5052742;28;20073;-71
2023/03/25 06:25:16;;;;;;;24.45;4.50;;;8.40;99.90;;;;;;5051734;28;20049;-71
2023/03/25 06:27:42;;;;;;;26.58;4.63;;;8.40;99.90;;;;;;5051944;28;20036;-71
2023/03/25 06:30:13;;;;;;;17.95;3.90;;;8.40;99.90;;;;;;5035194;28;20159;-72
2023/03/25 06:32:38;;;;;;;21.05;4.40;;;8.40;99.90;;;;;;5052103;28;20461;-72
2023/03/25 06:35:06;;;;;;;22.50;4.75;;;8.40;99.90;;;;;;5051966;28;20072;-72
2023/03/25 06:37:32;;;;;;;23.15;3.90;;;8.40;99.90;;;;;;5035046;28;20044;-72
2023/03/25 06:39:58;;;;;;;25.05;4.05;;;8.40;99.90;;;;;;5051964;28;20560;-72
2023/03/25 06:42:25;;;;;;;24.10;4.47;;;8.30;99.90;;;;;;5051721;28;20163;-72
2023/03/25 06:44:50;;;;;;;27.27;4.95;;;8.40;99.90;;;;;;5051692;28;20037;-71
2023/03/25 06:47:16;;;;;;;25.83;4.22;;;8.40;99.90;;;;;;5051949;28;20048;-71
2023/03/25 06:49:42;;;;;;;16.67;3.53;;;8.40;99.90;;;;;;5051666;28;20498;-72
2023/03/25 06:52:07;;;;;;;18.88;3.95;;;8.40;99.90;;;;;;5051653;28;20033;-72
2023/03/25 06:54:33;;;;;;;26.20;4.25;;;8.50;99.90;;;;;;5051511;28;20114;-71
2023/03/25 06:56:59;;;;;;;27.98;5.10;;;8.60;99.90;;;;;;5051542;28;20127;-71
2023/03/25 06:59:24;;;;;;;23.80;4.28;;;8.60;99.90;;;;;;5051546;28;20040;-71
2023/03/25 07:01:50;;;;;;;23.98;4.20;;;8.70;99.90;;;;;;5051596;28;20037;-72
2023/03/25 07:04:16;;;;;;;23.95;4.75;;;8.60;99.90;;;;;;5051575;28;20083;-72
2023/03/25 07:06:41;;;;;;;24.25;4.28;;;8.70;99.90;;;;;;5051540;28;20511;-72
2023/03/25 07:09:07;;;;;;;21.65;4.22;;;8.70;99.90;;;;;;5051722;28;20090;-72
2023/03/25 07:11:33;;;;;;;25.75;3.65;;;8.80;99.90;;;;;;5051445;28;20124;-71
2023/03/25 07:13:59;;;;;;;21.20;3.70;;;8.80;99.90;;;;;;5051372;28;20405;-71
2023/03/25 07:16:26;;;;;;;27.45;4.72;;;8.80;99.90;;;;;;5051681;28;20033;-71
2023/03/25 07:18:53;;;;;;;19.90;3.90;;;8.90;99.90;;;;;;5051383;28;20048;-71
2023/03/25 07:21:19;;;;;;;21.33;4.50;;;9.00;99.90;;;;;;5051337;28;20414;-71
2023/03/25 07:23:45;;;;;;;25.83;4.80;;;9.10;99.90;;;;;;5051349;28;20489;-71
2023/03/25 07:26:12;;;;;;;26.95;4.57;;;9.20;99.90;;;;;;5051192;28;20068;-71
2023/03/25 07:28:37;;;;;;;28.27;5.28;;;9.20;99.90;;;;;;5051275;28;20120;-71
2023/03/25 07:31:07;;;;;;;20.00;3.90;;;9.20;99.90;;;;;;5051572;28;20079;-71
2023/03/25 07:33:33;;;;;;;28.27;4.50;;;9.20;99.90;;;;;;5054523;28;20044;-71
2023/03/25 07:35:58;;;;;;;30.17;4.95;;;9.10;99.90;;;;;;5054910;28;20108;-71
2023/03/25 07:38:24;;;;;;;23.23;5.45;;;9.10;99.90;;;;;;5056021;28;20094;-71
2023/03/25 07:40:50;;;;;;;26.67;4.82;;;9.10;99.90;;;;;;5055117;28;20044;-72
2023/03/25 07:43:15;;;;;;;24.38;4.20;;;9.00;99.90;;;;;;5054888;28;20053;-71
2023/03/25 07:45:41;;;;;;;21.42;3.40;;;9.00;99.90;;;;;;5054681;28;20080;-71
2023/03/25 07:48:12;;;;;;;19.52;4.03;;;8.90;99.90;;;;;;5054759;28;20029;-71
2023/03/25 07:50:38;;;;;;;21.40;3.53;;;8.90;99.90;;;;;;5054794;28;20110;-72
2023/03/25 07:53:03;;;;;;;24.10;3.65;;;8.90;99.90;;;;;;5054686;28;20041;-72
2023/03/25 07:55:29;;;;;;;17.38;4.13;;;8.90;99.90;;;;;;5054443;28;20043;-71
2023/03/25 07:57:57;;;;;;;20.33;3.13;;;8.90;99.90;;;;;;5054617;28;20087;-72
2023/03/25 08:00:23;;;;;;;21.70;3.67;;;8.80;99.90;;;;;;5054645;28;20055;-72
2023/03/25 08:02:49;;;;;;;20.92;3.20;;;8.90;99.90;;;;;;5037983;28;20061;-71
2023/03/25 08:05:20;;;;;;;21.17;3.88;;;8.80;99.90;;;;;;5054494;28;20045;-71
2023/03/25 08:07:50;;;;;;;22.13;3.80;;;8.80;99.90;;;;;;5056144;28;20037;-71
2023/03/25 08:10:16;;;;;;;22.63;3.50;;;8.80;99.90;;;;;;5054519;28;20045;-72
2023/03/25 08:12:45;;;;;;;25.25;3.65;;;8.80;99.90;;;;;;5054462;28;20037;-71
2023/03/25 08:15:11;;;;;;;20.48;3.83;;;8.70;99.90;;;;;;5037666;28;20041;-71
2023/03/25 08:17:38;;;;;;;25.35;4.25;;;8.70;99.90;;;;;;5054280;28;20048;-72
2023/03/25 08:20:05;;;;;;;21.05;4.15;;;8.70;99.90;;;;;;5054303;28;20040;-72
2023/03/25 08:22:32;;;;;;;23.17;3.58;;;8.60;99.90;;;;;;5054475;28;20047;-70
2023/03/25 08:24:57;;;;;;;23.65;3.83;;;8.60;99.90;;;;;;5054016;28;20409;-71
2023/03/25 08:27:23;;;;;;;21.95;3.88;;;8.70;99.90;;;;;;5054312;28;20041;-71
2023/03/25 08:29:53;;;;;;;28.88;3.65;;;8.70;99.90;;;;;;5054327;28;20111;-71
2023/03/25 08:32:23;;;;;;;26.73;4.50;;;8.80;99.90;;;;;;5054255;28;20044;-71
2023/03/25 08:34:48;;;;;;;22.83;3.63;;;8.80;99.90;;;;;;5053827;28;20047;-71
2023/03/25 08:37:14;;;;;;;28.42;4.72;;;8.90;99.90;;;;;;5054147;28;20131;-71
2023/03/25 08:39:43;;;;;;;22.27;3.72;;;9.00;99.90;;;;;;5053964;28;20425;-71
2023/03/25 08:42:10;;;;;;;27.20;4.22;;;9.00;99.90;;;;;;5053759;28;20060;-71
2023/03/25 08:44:36;;;;;;;24.48;4.13;;;9.10;99.90;;;;;;5035924;28;20052;-71
2023/03/25 08:47:03;;;;;;;23.17;5.10;;;9.10;99.90;;;;;;5053952;28;20041;-71
2023/03/25 08:49:28;;;;;;;22.90;4.20;;;9.10;99.90;;;;;;5053860;28;20456;-71
2023/03/25 08:51:56;;;;;;;24.10;4.10;;;9.10;99.90;;;;;;5053837;28;20033;-71
2023/03/25 08:54:23;;;;;;;24.35;4.10;;;9.10;99.90;;;;;;5053457;28;20087;-71
2023/03/25 08:56:48;;;;;;;26.85;4.03;;;9.10;99.90;;;;;;5054625;28;20052;-71
2023/03/25 08:59:14;;;;;;;24.27;4.03;;;9.10;99.90;;;;;;5053441;28;20032;-71
2023/03/25 09:01:42;;;;;;;21.02;3.95;;;9.20;99.90;;;;;;5053411;28;20155;-71
2023/03/25 09:04:08;;;;;;;19.27;3.70;;;9.20;99.90;;;;;;5053225;28;20045;-71
2023/03/25 09:06:33;;;;;;;25.17;4.38;;;9.20;99.90;;;;;;5053315;28;20037;-71
2023/03/25 09:09:00;;;;;;;21.70;3.45;;;9.20;99.90;;;;;;5053626;28;20128;-71
2023/03/25 09:11:25;;;;;;;25.00;4.30;;;9.40;99.90;;;;;;5053185;28;20463;-72
2023/03/25 09:13:51;;;;;;;20.77;4.22;;;9.50;99.90;;;;;;5053186;28;20043;-71
2023/03/25 09:16:17;;;;;;;23.98;3.60;;;9.50;99.90;;;;;;5053309;28;20102;-71
2023/03/25 09:18:42;;;;;;;22.65;3.85;;;9.60;99.90;;;;;;5053103;28;20047;-71
2023/03/25 09:21:08;;;;;;;15.23;3.50;;;9.60;99.90;;;;;;5053277;28;20091;-71
2023/03/25 09:23:33;;;;;;;21.65;4.15;;;9.70;99.90;;;;;;5053204;28;20045;-71
2023/03/25 09:26:02;;;;;;;17.50;3.20;;;9.80;99.90;;;;;;5052875;28;20489;-71
2023/03/25 09:28:28;;;;;;;21.08;4.00;;;9.90;99.90;;;;;;5036308;28;20040;-71
2023/03/25 09:30:55;;;;;;;18.83;3.75;;;9.90;99.90;;;;;;5069451;28;20033;-72
2023/03/25 09:33:20;;;;;;;24.75;3.83;;;9.90;99.90;;;;;;5052947;28;20051;-72
2023/03/25 09:35:47;;;;;;;22.25;3.75;;;9.90;99.90;;;;;;5052680;28;20178;-71
2023/03/25 09:38:13;;;;;;;17.55;3.63;;;9.90;99.90;;;;;;5052921;28;20512;-71
2023/03/25 09:40:43;;;;;;;22.23;3.60;;;9.90;99.90;;;;;;5052913;28;20045;-71
2023/03/25 09:43:27;;;;;;;21.85;3.22;;;9.80;99.90;;;;;;5052641;28;20044;-71
2023/03/25 09:45:55;;;;;;;18.15;3.50;;;9.80;99.90;;;;;;5052451;28;20498;-72
2023/03/25 09:48:38;;;;;;;22.73;3.42;;;9.80;99.90;;;;;;5052532;28;20037;-72
2023/03/25 09:51:10;;;;;;;18.98;3.17;;;10.00;99.90;;;;;;5052515;28;20047;-72
2023/03/25 09:53:46;;;;;;;18.50;2.58;;;10.00;99.90;;;;;;5052443;28;20041;-71
2023/03/25 09:56:21;;;;;;;22.70;4.70;;;10.00;99.90;;;;;;5051910;28;20437;-71
2023/03/25 09:58:50;;;;;;;18.65;3.05;;;10.00;99.90;;;;;;5036029;28;20106;-71
2023/03/25 10:01:41;;;;;;;17.77;3.80;;;10.10;99.90;;;;;;5052532;28;20041;-72
2023/03/25 10:04:42;;;;;;;16.40;3.72;;;10.10;99.90;;;;;;5052161;28;20048;-71
2023/03/25 10:07:25;;;;;;;21.50;4.05;;;10.20;99.90;;;;;;5052301;28;20045;-72
2023/03/25 10:10:03;;;;;;;22.92;3.65;;;10.20;99.90;;;;;;5052228;28;20049;-72
2023/03/25 10:12:41;;;;;;;17.63;3.22;;;10.20;99.90;;;;;;5052156;28;20445;-72
2023/03/25 10:15:24;;;;;;;22.27;4.13;;;10.20;99.90;;;;;;5052027;28;20056;-71
2023/03/25 10:18:03;;;;;;;19.05;3.58;;;10.30;99.90;;;;;;5052037;28;20041;-71
2023/03/25 10:20:45;;;;;;;19.42;3.88;;;10.30;99.90;;;;;;5052029;28;20045;-71
2023/03/25 10:23:26;;;;;;;20.20;3.58;;;10.30;99.90;;;;;;5052052;28;20210;-71
2023/03/25 10:25:58;;;;;;;20.35;3.25;;;10.30;99.90;;;;;;5035182;28;20047;-71
2023/03/25 10:28:32;;;;;;;17.80;3.42;;;10.20;99.90;;;;;;5051918;28;20528;-71
2023/03/25 10:30:59;;;;;;;20.80;4.18;;;10.20;99.90;;;;;;5052170;28;20041;-71
2023/03/25 10:33:32;;;;;;;18.02;3.38;;;10.10;99.90;;;;;;5051838;28;20041;-71
2023/03/25 10:36:00;;;;;;;19.10;3.67;;;10.10;99.90;;;;;;5051776;28;20405;-71
2023/03/25 10:38:29;;;;;;;21.80;3.47;;;10.10;99.90;;;;;;5052004;28;20050;-72
2023/03/25 10:41:27;;;;;;;19.23;4.30;;;10.10;99.90;;;;;;5051957;28;20114;-72
2023/03/25 10:43:53;;;;;;;23.58;4.03;;;10.10;99.90;;;;;;5051764;28;20040;-71
2023/03/25 10:46:19;;;;;;;25.55;3.67;;;10.20;99.90;;;;;;5051548;28;20041;-71
2023/03/25 10:48:46;;;;;;;17.08;3.90;;;10.30;99.90;;;;;;5051951;28;20064;-71
2023/03/25 10:51:17;;;;;;;21.92;4.22;;;10.40;99.90;;;;;;5051648;28;20048;-71
2023/03/25 10:53:52;;;;;;;19.20;3.50;;;10.50;99.90;;;;;;5051628;28;20415;-70
2023/03/25 10:56:28;;;;;;;17.40;3.53;;;10.50;99.90;;;;;;5051434;28;20410;-71
2023/03/25 10:58:55;;;;;;;18.25;3.67;;;10.50;99.90;;;;;;5051599;28;20048;-71
2023/03/25 11:01:39;;;;;;;16.95;3.40;;;10.50;99.90;;;;;;5051822;28;20501;-71
2023/03/25 11:04:08;;;;;;;21.80;3.60;;;10.50;99.90;;;;;;5051753;28;20033;-70
2023/03/25 11:06:38;;;;;;;22.08;3.72;;;10.50;99.90;;;;;;5051714;28;20083;-71
2023/03/25 11:09:14;;;;;;;22.15;3.75;;;10.50;99.90;;;;;;5055557;28;20037;-71
2023/03/25 11:11:41;;;;;;;20.63;3.42;;;10.50;99.90;;;;;;5039368;28;20037;-71
2023/03/25 11:14:07;;;;;;;17.33;3.50;;;10.50;99.90;;;;;;5055637;28;20052;-70
2023/03/25 11:16:38;;;;;;;20.75;3.00;;;10.50;99.90;;;;;;5055366;28;20047;-71
2023/03/25 11:19:04;;;;;;;16.92;2.92;;;10.60;99.90;;;;;;5055344;28;20413;-71
2023/03/25 11:21:35;;;;;;;21.63;3.75;;;10.70;99.90;;;;;;5055286;28;20033;-71
2023/03/25 11:24:04;;;;;;;15.57;3.05;;;10.80;99.90;;;;;;5055252;28;20553;-71
2023/03/25 11:26:37;;;;;;;18.55;3.80;;;10.90;99.90;;;;;;5055195;28;20098;-71
2023/03/25 11:29:15;;;;;;;18.83;3.47;;;11.10;99.90;;;;;;5055439;28;20052;-71
2023/03/25 11:31:42;;;;;;;16.17;3.72;;;11.30;99.90;;;;;;5055399;28;20036;-71
2023/03/25 11:34:10;;;;;;;17.30;3.80;;;11.40;99.90;;;;;;5056577;28;20048;-70
2023/03/25 11:37:08;;;;;;;18.60;3.20;;;11.60;99.90;;;;;;5054999;28;20044;-71
2023/03/25 11:39:38;;;;;;;23.98;3.30;;;11.90;99.90;;;;;;5046601;28;20509;-71
2023/03/25 11:42:27;;;;;;;19.95;3.60;;;12.20;99.90;;;;;;5054897;28;20128;-71
2023/03/25 11:44:58;;;;;;;21.83;3.22;;;12.30;99.90;;;;;;5054875;28;20140;-71
2023/03/25 11:47:35;;;;;;;20.15;4.47;;;12.40;99.90;;;;;;5055121;28;20115;-71
2023/03/25 11:50:01;;;;;;;14.93;2.97;;;12.50;99.90;;;;;;5055059;28;20089;-72
2023/03/25 11:52:40;;;;;;;20.77;3.47;;;12.60;99.90;;;;;;5054803;28;20041;-71
2023/03/25 11:55:14;;;;;;;11.88;2.65;;;12.50;99.90;;;;;;5055320;28;20402;-71
2023/03/25 11:57:41;;;;;;;14.80;3.20;;;12.40;99.90;;;;;;5054726;28;20056;-72
2023/03/25 12:00:26;;;;;;;12.05;2.88;;;12.20;99.90;;;;;;5055222;28;20150;-72
2023/03/25 12:03:11;;;;;;;14.85;3.03;;;12.30;99.90;;;;;;5055355;28;20055;-72
2023/03/25 12:05:37;;;;;;;15.63;2.83;;;12.30;99.90;;;;;;5054621;28;20175;-72
2023/03/25 12:08:16;;;;;;;18.27;3.38;;;12.20;99.90;;;;;;5054557;28;20128;-72
2023/03/25 12:10:48;;;;;;;14.50;3.08;;;12.10;99.90;;;;;;5054637;28;20087;-72
2023/03/25 12:13:53;;;;;;;17.67;3.60;;;12.10;99.90;;;;;;5054407;28;20124;-72
2023/03/25 12:16:36;;;;;;;18.98;3.08;;;12.00;99.90;;;;;;5055773;28;20412;-72
2023/03/25 12:19:14;;;;;;;18.35;3.03;;;11.90;99.90;;;;;;5054138;28;20048;-72
2023/03/25 12:22:11;;;;;;;20.17;3.55;;;12.00;99.90;;;;;;5054490;28;20135;-72
2023/03/25 12:24:55;;;;;;;13.57;2.90;;;12.00;99.90;;;;;;5050837;28;20053;-72
2023/03/25 12:27:36;;;;;;;16.98;2.83;;;11.90;99.90;;;;;;5054125;28;20114;-72
2023/03/25 12:30:30;;;;;;;18.17;3.90;;;12.00;99.90;;;;;;5054335;28;20541;-72
2023/03/25 12:33:31;;;;;;;17.45;3.33;;;12.10;99.90;;;;;;5054025;28;20052;-72
2023/03/25 12:36:18;;;;;;;16.30;3.20;;;12.40;99.90;;;;;;5054147;28;20049;-72
2023/03/25 12:39:04;;;;;;;14.40;3.33;;;12.50;99.90;;;;;;5053899;28;20075;-72
2023/03/25 12:41:42;;;;;;;17.30;3.08;;;12.50;99.90;;;;;;5055117;28;20405;-72
2023/03/25 12:44:46;;;;;;;14.35;2.78;;;12.40;99.90;;;;;;5053673;28;20501;-72
2023/03/25 12:47:27;;;;;;;16.63;3.47;;;12.40;99.90;;;;;;5054108;28;20048;-72
2023/03/25 12:50:24;;;;;;;18.35;3.45;;;12.20;99.90;;;;;;5053705;28;20049;-72
2023/03/25 12:53:28;;;;;;;16.70;3.45;;;12.10;99.90;;;;;;5052881;28;20399;-72
2023/03/25 12:56:02;;;;;;;17.13;3.88;;;12.00;99.90;;;;;;5047109;28;20048;-72
2023/03/25 12:58:51;;;;;;;14.93;3.03;;;11.90;99.90;;;;;;5053735;28;20041;-72
2023/03/25 13:01:43;;;;;;;17.58;3.10;;;12.10;99.90;;;;;;5053471;28;20041;-72
2023/03/25 13:04:33;;;;;;;15.77;2.90;;;12.30;99.90;;;;;;5053311;28;20409;-72